Lyman — WDD4170 — position and weather

sailwx.info

Track history (hours):
 
Tides and Currents Weather Stations Pressure Air Temp Water Temp Dewpoint Dewpoint Depression Visibility Wind Speed Wind Dir Waves Ship Positions

Lyman

Owner: G.T. 102, New Haven, CT. More information available from US FCC via Universal Licensing System and Coast Guard Vessel Documentation Center.

Last reported at 2017-Nov-16 11:38 UTC. Time now 2017-Nov-24 02:16 UTC.
Position N 41°12' W 072°44'.

; draft 4.9 m.

Type: Towing. MMSI: 367141180.

Date/timePositionNaut miles runAvg speedWind from/ knotsBaromVisibWave heightAir tempDewpointWater temp
2017-Nov-16 11:38N 41°12' W 072°44'1 8.1
2017-Nov-16 11:31N 41°12' W 072°43'4 8.2
2017-Nov-16 11:00N 41°11' W 072°38'4 8.2
2017-Nov-16 10:31N 41°10' W 072°32'4 8.2
2017-Nov-16 10:00N 41°11' W 072°27'4 7.9
2017-Nov-16 09:31N 41°12' W 072°22'4 7.3
2017-Nov-16 09:00N 41°13' W 072°17'3 6.5
2017-Nov-16 08:29N 41°13' W 072°13'3 5.9
2017-Nov-16 07:53N 41°14' W 072°08'2 5.8
2017-Nov-16 07:29N 41°15' W 072°05'11 0.4
2017-Nov-15 04:48N 41°12' W 072°20'312.0
2017-Nov-15 04:31N 41°11' W 072°24'611.4
2017-Nov-15 04:01N 41°10' W 072°32'611.0
2017-Nov-15 03:31N 41°11' W 072°39'510.6
2017-Nov-15 03:00N 41°11' W 072°46'  
2017-Nov-07 16:09N 41°12' W 072°42'1 9.8
2017-Nov-07 16:00N 41°11' W 072°41'510.0
2017-Nov-07 15:30N 41°11' W 072°34'510.4
2017-Nov-07 15:00N 41°11' W 072°27'510.9
2017-Nov-07 14:30N 41°12' W 072°20'510.5
2017-Nov-07 14:00N 41°13' W 072°13'44 7.5
2017-Nov-07 08:13N 41°35' W 071°23'5 6.1
2017-Nov-07 07:22N 41°39' W 071°19'410.1
2017-Nov-07 07:00N 41°42' W 071°20'5 9.2
2017-Nov-07 06:30N 41°47' W 071°22'2 0.4
2017-Nov-07 00:38N 41°44' W 071°22'1 8.9
2017-Nov-07 00:30N 41°43' W 071°21'5 8.7
2017-Nov-06 23:57N 41°39' W 071°19'1 1.0
2017-Nov-06 23:05N 41°40' W 071°19'110.8
2017-Nov-06 22:59N 41°41' W 071°19'510.4
2017-Nov-06 22:30N 41°45' W 071°22'  
Track history (hours):
 
Tides and Currents Weather Stations Pressure Air Temp Water Temp Dewpoint Dewpoint Depression Visibility Wind Speed Wind Dir Waves Ship Positions

Lyman

Owner: G.T. 102, New Haven, CT. More information available from US FCC via Universal Licensing System and Coast Guard Vessel Documentation Center.

Last reported at 2017-Nov-16 11:38 UTC. Time now 2017-Nov-24 02:16 UTC.
Position N 41°12' W 072°44'.

; draft 4.9 m.

Type: Towing. MMSI: 367141180.

Date/timePositionNaut miles runAvg speedWind from/ knotsBaromVisibWave heightAir tempDewpointWater temp
2017-Nov-16 11:38N 41°12' W 072°44'1 8.1
2017-Nov-16 11:31N 41°12' W 072°43'4 8.2
2017-Nov-16 11:00N 41°11' W 072°38'4 8.2
2017-Nov-16 10:31N 41°10' W 072°32'4 8.2
2017-Nov-16 10:00N 41°11' W 072°27'4 7.9
2017-Nov-16 09:31N 41°12' W 072°22'4 7.3
2017-Nov-16 09:00N 41°13' W 072°17'3 6.5
2017-Nov-16 08:29N 41°13' W 072°13'3 5.9
2017-Nov-16 07:53N 41°14' W 072°08'2 5.8
2017-Nov-16 07:29N 41°15' W 072°05'11 0.4
2017-Nov-15 04:48N 41°12' W 072°20'312.0
2017-Nov-15 04:31N 41°11' W 072°24'611.4
2017-Nov-15 04:01N 41°10' W 072°32'611.0
2017-Nov-15 03:31N 41°11' W 072°39'510.6
2017-Nov-15 03:00N 41°11' W 072°46'  
2017-Nov-07 16:09N 41°12' W 072°42'1 9.8
2017-Nov-07 16:00N 41°11' W 072°41'510.0
2017-Nov-07 15:30N 41°11' W 072°34'510.4
2017-Nov-07 15:00N 41°11' W 072°27'510.9
2017-Nov-07 14:30N 41°12' W 072°20'510.5
2017-Nov-07 14:00N 41°13' W 072°13'44 7.5
2017-Nov-07 08:13N 41°35' W 071°23'5 6.1
2017-Nov-07 07:22N 41°39' W 071°19'410.1
2017-Nov-07 07:00N 41°42' W 071°20'5 9.2
2017-Nov-07 06:30N 41°47' W 071°22'2 0.4
2017-Nov-07 00:38N 41°44' W 071°22'1 8.9
2017-Nov-07 00:30N 41°43' W 071°21'5 8.7
2017-Nov-06 23:57N 41°39' W 071°19'1 1.0
2017-Nov-06 23:05N 41°40' W 071°19'110.8
2017-Nov-06 22:59N 41°41' W 071°19'510.4
2017-Nov-06 22:30N 41°45' W 071°22'  

Dump ship's entire track history